Terminal Aerodrome Forecast
Issued by NWS

Home | Current Version | Previous Version | Text Only | Print | Product List | Glossary On
Versions: 1 2 3 4 5 6 7 8 9 10 11 12 13 14 15 16 17 18 19 20 21 22 23
000
FTUS43 KBIS 250100 AAA
TAFDIK
TAF AMD
KDIK 250136Z 2502/2524 14008KT P6SM BKN250
     FM250200 00000KT P6SM VCTS SCT120CB
      TEMPO 2502/2504 VRB20G30KT 3SM TSRAGS BKN080CB
     FM250400 29025G36KT P6SM SCT120
     FM250600 29009KT P6SM FEW250
     FM251400 29013G22KT P6SM FEW250=

USA.gov is the U.S. government's official web portal to all federal, state and local government web resources and services.